Time;durP1;ratioP1;P1;durP2;ratioP2;P2;SDS_P1;SDS_P2;PMS_P1;PMS_P2;Temp;Humidity;BMP_temperature;BMP_pressure;BME280_temperature;BME280_humidity;BME280_pressure;Samples;Min_cycle;Max_cycle;Signal;HPM_P1;HPM_P2
2022/11/07 00:01:33;;;;;;;2.47;1.90;;;2.40;99.90;3.10;96895.00;;;;5085450;28;20952;-70
2022/11/07 00:04:21;;;;;;;2.07;1.97;;;2.50;99.90;2.90;96899.00;;;;5083590;28;20415;-70
2022/11/07 00:07:11;;;;;;;3.63;2.33;;;2.60;99.90;2.80;96911.00;;;;5074410;28;20443;-70
2022/11/07 00:10:00;;;;;;;2.73;2.10;;;2.40;99.90;3.20;96918.00;;;;5071383;28;20458;-70
2022/11/07 00:12:49;;;;;;;2.87;2.13;;;2.50;99.90;3.00;96914.00;;;;5083845;28;20433;-70
2022/11/07 00:15:37;;;;;;;6.50;2.27;;;2.50;99.90;3.30;96917.00;;;;5081861;28;20414;-69
2022/11/07 00:18:26;;;;;;;2.17;1.87;;;2.50;99.90;3.10;96913.00;;;;5070664;28;20565;-69
2022/11/07 00:21:15;;;;;;;1.83;1.73;;;2.50;99.90;3.10;96908.00;;;;5078890;28;20437;-70
2022/11/07 00:24:06;;;;;;;3.73;2.07;;;2.40;99.90;3.10;96908.00;;;;5074657;28;20484;-70
2022/11/07 00:26:55;;;;;;;2.43;2.23;;;2.40;99.90;2.70;96905.00;;;;5087693;28;20484;-70
2022/11/07 00:29:44;;;;;;;1.27;1.17;;;2.40;99.90;2.80;96901.00;;;;5088149;28;20978;-70
2022/11/07 00:32:33;;;;;;;2.53;2.00;;;2.40;99.90;2.90;96911.00;;;;5083748;28;20471;-70
2022/11/07 00:35:22;;;;;;;2.17;1.73;;;2.40;99.90;2.90;96905.00;;;;5087032;28;20505;-70
2022/11/07 00:38:10;;;;;;;2.77;2.03;;;2.30;99.90;2.90;96897.00;;;;5078648;28;20533;-69
2022/11/07 00:41:03;;;;;;;4.03;2.43;;;2.40;99.90;2.50;96905.00;;;;5080524;28;20441;-69
2022/11/07 00:43:52;;;;;;;1.60;1.50;;;2.40;99.90;2.10;96905.00;;;;5085973;28;20414;-71
2022/11/07 00:46:41;;;;;;;2.27;2.07;;;2.10;99.90;2.30;96903.00;;;;5085137;28;20438;-70
2022/11/07 00:49:30;;;;;;;1.97;1.83;;;2.00;99.90;2.50;96909.00;;;;5088848;28;20437;-73
2022/11/07 00:52:18;;;;;;;2.33;1.77;;;2.10;99.90;2.60;96910.00;;;;5082731;28;20508;-70
2022/11/07 00:55:08;;;;;;;1.23;1.13;;;2.10;99.90;2.50;96905.00;;;;5083925;28;20426;-71
2022/11/07 00:57:58;;;;;;;4.90;1.80;;;2.10;99.90;2.60;96916.00;;;;5088835;28;20458;-69
2022/11/07 01:00:47;;;;;;;1.10;1.00;;;2.10;99.90;2.70;96918.00;;;;5087582;28;20429;-71
2022/11/07 01:06:44;;;;;;;2.07;1.40;;;2.20;99.90;3.20;96908.00;;;;5084909;28;20987;-70
2022/11/07 01:09:33;;;;;;;1.90;1.73;;;2.40;99.90;3.20;96913.00;;;;5077778;28;20461;-71
2022/11/07 01:12:22;;;;;;;1.60;1.50;;;2.40;99.90;3.00;96916.00;;;;5081525;28;20463;-71
2022/11/07 01:15:12;;;;;;;2.13;1.87;;;2.40;99.90;3.10;96910.00;;;;5080599;28;20438;-70
2022/11/07 01:18:01;;;;;;;2.50;1.60;;;2.30;99.90;3.20;96910.00;;;;5087867;28;20537;-70
2022/11/07 01:20:49;;;;;;;4.53;1.73;;;2.50;99.90;3.20;96897.00;;;;5088473;28;20421;-70
2022/11/07 01:23:38;;;;;;;4.63;1.80;;;2.50;99.90;3.30;96896.00;;;;5084129;28;20512;-71
2022/11/07 01:26:27;;;;;;;9.40;1.73;;;2.60;99.90;3.40;96908.00;;;;5082403;28;20444;-71
2022/11/07 01:29:17;;;;;;;4.37;2.47;;;2.60;99.90;3.30;96907.00;;;;5083106;28;20468;-70
2022/11/07 01:32:07;;;;;;;1.93;1.43;;;2.60;99.90;3.10;96895.00;;;;5082334;28;20430;-71
2022/11/07 01:34:56;;;;;;;3.10;2.23;;;2.60;99.90;3.40;96891.00;;;;5070619;28;21274;-71
2022/11/07 01:37:44;;;;;;;1.93;1.83;;;2.70;99.90;3.40;96899.00;;;;5068115;28;20947;-71
2022/11/07 01:41:19;;;;;;;2.07;1.87;;;2.70;99.90;3.30;96909.00;;;;5070089;28;20431;-70
2022/11/07 01:43:45;;;;;;;2.00;1.80;;;2.70;99.90;3.10;96890.00;;;;5089233;28;20429;-70
2022/11/07 01:46:36;;;;;;;2.03;1.90;;;2.70;99.90;3.10;96902.00;;;;5089518;28;21012;-70
2022/11/07 01:49:33;;;;;;;1.57;1.30;;;2.60;99.90;3.10;96892.00;;;;5088812;28;20874;-70
2022/11/07 01:52:27;;;;;;;2.73;1.90;;;2.60;99.90;2.90;96882.00;;;;5089486;28;20422;-70
2022/11/07 01:55:20;;;;;;;1.40;1.30;;;2.50;99.90;2.50;96882.00;;;;5084921;28;20469;-70
2022/11/07 01:58:09;;;;;;;2.00;1.83;;;2.40;99.90;2.80;96892.00;;;;5072872;28;20466;-71
2022/11/07 02:00:58;;;;;;;2.00;1.83;;;2.40;99.90;2.90;96893.00;;;;5079390;28;20438;-69
2022/11/07 02:03:47;;;;;;;2.00;1.80;;;2.40;99.90;3.40;96903.00;;;;5076505;28;20421;-70
2022/11/07 02:06:45;;;;;;;1.93;1.80;;;2.50;99.90;3.80;96894.00;;;;5080455;28;21033;-70
2022/11/07 02:09:34;;;;;;;2.50;1.97;;;2.60;99.90;3.80;96882.00;;;;5077394;28;20498;-70
2022/11/07 02:12:24;;;;;;;2.07;1.93;;;2.70;99.90;3.70;96891.00;;;;5081141;28;20425;-70
2022/11/07 02:15:13;;;;;;;4.33;1.80;;;2.80;99.90;3.70;96895.00;;;;5080742;28;20430;-70
2022/11/07 02:18:03;;;;;;;3.77;1.80;;;2.90;99.90;3.40;96901.00;;;;5069132;28;21196;-69
2022/11/07 02:20:52;;;;;;;2.93;1.77;;;2.90;99.90;3.80;96898.00;;;;5070619;28;20862;-70
2022/11/07 02:23:51;;;;;;;5.63;1.77;;;2.90;99.90;4.10;96905.00;;;;5078854;28;20958;-70
2022/11/07 02:26:42;;;;;;;2.50;2.30;;;3.00;99.90;4.30;96909.00;;;;5074606;28;20426;-70
2022/11/07 02:29:33;;;;;;;2.37;1.70;;;3.10;99.90;3.50;96904.00;;;;5080303;28;20942;-70
2022/11/07 02:32:22;;;;;;;2.30;2.10;;;3.10;99.90;3.40;96906.00;;;;5089150;28;20418;-70
2022/11/07 02:35:35;;;;;;;1.80;1.70;;;3.10;99.90;3.70;96900.00;;;;5087065;28;21101;-70
2022/11/07 02:38:28;;;;;;;2.30;2.03;;;2.90;99.90;4.10;96898.00;;;;5075162;28;20902;-70
2022/11/07 02:41:20;;;;;;;2.60;1.97;;;3.00;99.90;4.10;96898.00;;;;5069281;28;20481;-70
2022/11/07 02:44:12;;;;;;;2.90;2.00;;;3.10;99.90;4.10;96901.00;;;;5077580;28;20831;-70
2022/11/07 02:47:01;;;;;;;2.40;2.17;;;3.20;99.90;3.90;96902.00;;;;5077304;28;20514;-70
2022/11/07 02:49:49;;;;;;;6.20;3.17;;;3.20;99.90;4.00;96896.00;;;;5085818;28;20491;-70
2022/11/07 02:52:38;;;;;;;5.40;1.93;;;3.20;99.90;3.50;96901.00;;;;5070600;28;20488;-71
2022/11/07 02:55:27;;;;;;;1.90;1.80;;;3.10;99.90;3.60;96894.00;;;;5081225;28;20442;-70
2022/11/07 02:58:15;;;;;;;3.13;2.20;;;3.10;99.90;3.60;96906.00;;;;5080326;28;20586;-69
2022/11/07 03:01:06;;;;;;;4.80;2.00;;;3.20;99.90;3.70;96895.00;;;;5088832;28;20426;-70
2022/11/07 03:03:55;;;;;;;2.80;1.73;;;3.10;99.90;3.90;96902.00;;;;5088576;28;20947;-70
2022/11/07 03:06:44;;;;;;;2.63;2.43;;;3.00;99.90;4.20;96910.00;;;;5073126;28;20450;-70
2022/11/07 03:09:32;;;;;;;1.93;1.83;;;3.20;99.90;4.00;96910.00;;;;5080706;28;20466;-70
2022/11/07 03:12:21;;;;;;;1.67;1.43;;;3.30;99.90;4.10;96919.00;;;;5087148;28;20429;-71
2022/11/07 03:15:12;;;;;;;1.80;1.70;;;3.30;99.90;3.80;96909.00;;;;5069995;28;20864;-72
2022/11/07 03:18:02;;;;;;;2.00;1.83;;;3.30;99.90;4.00;96908.00;;;;5068208;28;20590;-69
2022/11/07 03:20:51;;;;;;;1.83;1.47;;;3.40;99.90;4.10;96909.00;;;;5067502;28;20468;-70
2022/11/07 03:23:40;;;;;;;2.23;2.03;;;3.40;99.90;4.30;96914.00;;;;5072289;28;20414;-70
2022/11/07 03:26:28;;;;;;;1.80;1.70;;;3.50;99.90;4.60;96928.00;;;;5078711;28;20487;-70
2022/11/07 03:29:17;;;;;;;2.03;1.87;;;3.60;99.90;4.70;96921.00;;;;5082443;28;20492;-69
2022/11/07 03:32:06;;;;;;;2.37;1.87;;;3.80;99.90;4.90;96922.00;;;;5085333;28;21224;-70
2022/11/07 03:34:56;;;;;;;3.00;2.23;;;3.80;99.90;5.20;96927.00;;;;5078685;28;21252;-70
2022/11/07 03:37:46;;;;;;;2.20;1.87;;;4.00;99.90;5.20;96939.00;;;;5072744;28;20589;-69
2022/11/07 03:40:35;;;;;;;2.23;2.00;;;4.10;99.90;4.40;96931.00;;;;5071772;28;20425;-69
2022/11/07 03:43:23;;;;;;;3.77;1.50;;;4.10;99.90;4.50;96936.00;;;;5085889;28;20992;-71
2022/11/07 03:46:13;;;;;;;2.57;1.97;;;4.00;99.90;4.30;96939.00;;;;5075972;28;21000;-70
2022/11/07 03:49:02;;;;;;;2.33;2.00;;;3.90;99.90;4.50;96950.00;;;;5087985;28;20485;-69
2022/11/07 03:51:52;;;;;;;2.10;1.90;;;3.90;99.90;4.50;96950.00;;;;5077061;28;20520;-70
2022/11/07 03:54:40;;;;;;;1.77;1.60;;;3.90;99.90;4.30;96956.00;;;;5067958;28;20521;-70
2022/11/07 03:57:29;;;;;;;7.17;1.87;;;3.90;99.90;4.50;96955.00;;;;5087448;28;20424;-70
2022/11/07 04:00:18;;;;;;;1.50;1.40;;;3.90;99.90;4.30;96955.00;;;;5070019;28;20474;-70
2022/11/07 04:03:07;;;;;;;2.00;1.80;;;3.90;99.90;4.70;96965.00;;;;5078383;28;20421;-71
2022/11/07 04:05:55;;;;;;;3.80;1.83;;;4.00;99.90;4.90;96968.00;;;;5084722;28;20475;-70
2022/11/07 04:08:45;;;;;;;2.33;2.20;;;4.10;99.90;5.30;96968.00;;;;5076955;28;20492;-70
2022/11/07 04:17:46;;;;;;;4.97;2.33;;;4.50;99.90;5.30;96972.00;;;;5072017;28;20941;-70
2022/11/07 04:20:35;;;;;;;4.67;2.33;;;4.60;99.90;5.10;96989.00;;;;5071977;28;20469;-70
2022/11/07 04:23:23;;;;;;;5.50;2.00;;;4.40;99.90;4.80;96989.00;;;;5079895;28;20449;-70
2022/11/07 04:29:19;;;;;;;3.23;2.17;;;4.30;99.90;5.10;96981.00;;;;5086065;28;20465;-70
2022/11/07 04:32:08;;;;;;;1.87;1.77;;;4.40;99.90;5.20;96982.00;;;;5090205;28;20425;-70
2022/11/07 04:34:57;;;;;;;4.23;2.53;;;4.40;99.90;5.10;96989.00;;;;5090378;28;20489;-70
2022/11/07 04:37:46;;;;;;;2.27;2.07;;;4.40;99.90;5.00;96998.00;;;;5091231;28;20292;-71
2022/11/07 04:40:35;;;;;;;1.80;1.60;;;4.40;99.90;5.20;97011.00;;;;5089485;28;20511;-70
2022/11/07 04:43:27;;;;;;;4.33;2.33;;;4.40;99.90;5.50;97014.00;;;;5082551;28;20426;-70
2022/11/07 04:46:16;;;;;;;2.73;2.17;;;4.50;99.90;5.70;96999.00;;;;5071473;28;20207;-70
2022/11/07 04:49:05;;;;;;;2.97;2.70;;;4.60;99.90;5.70;97013.00;;;;5077748;28;20510;-71
2022/11/07 04:51:57;;;;;;;2.10;1.90;;;6.70;99.90;5.60;97007.00;;;;5086061;28;20204;-70
2022/11/07 04:54:45;;;;;;;3.47;2.60;;;4.60;99.90;5.60;97004.00;;;;5078005;28;20279;-71
2022/11/07 04:57:34;;;;;;;3.63;2.23;;;4.60;99.90;5.20;97004.00;;;;5069829;28;20196;-69
2022/11/07 05:00:25;;;;;;;2.50;2.27;;;4.60;99.90;5.50;97009.00;;;;5070114;28;20273;-70
2022/11/07 05:03:13;;;;;;;1.70;1.50;;;4.70;99.90;5.40;97002.00;;;;5080609;28;20301;-70
2022/11/07 05:06:03;;;;;;;2.83;1.73;;;4.70;99.90;5.20;97011.00;;;;5085284;28;20199;-70
2022/11/07 05:08:52;;;;;;;3.53;1.77;;;4.60;99.90;5.30;97004.00;;;;5087675;28;20250;-69
2022/11/07 05:11:40;;;;;;;2.30;2.10;;;4.60;99.90;5.40;97018.00;;;;5076693;28;20426;-69
2022/11/07 05:14:29;;;;;;;5.10;2.57;;;4.70;99.90;5.30;97013.00;;;;5086051;28;20419;-69
2022/11/07 05:17:20;;;;;;;4.17;2.57;;;4.70;99.90;5.60;97018.00;;;;5076336;28;20905;-70
2022/11/07 05:20:27;;;;;;;7.67;1.93;;;4.70;99.90;5.90;97021.00;;;;5082910;28;21052;-69
2022/11/07 05:23:17;;;;;;;4.60;2.40;;;4.80;99.90;5.80;97027.00;;;;5078971;28;20225;-70
2022/11/07 05:26:06;;;;;;;6.30;2.30;;;4.80;99.90;5.80;97016.00;;;;5075681;28;20192;-70
2022/11/07 05:28:54;;;;;;;3.90;2.43;;;4.80;99.90;5.70;97025.00;;;;5089542;28;20239;-70
2022/11/07 05:31:43;;;;;;;6.70;2.20;;;4.80;99.90;5.60;97026.00;;;;5086942;28;20257;-69
2022/11/07 05:34:33;;;;;;;3.00;2.27;;;4.80;99.90;5.50;97019.00;;;;5090284;28;20199;-69
2022/11/07 05:37:22;;;;;;;2.73;1.87;;;4.80;99.90;5.30;97028.00;;;;5082048;28;20222;-69
2022/11/07 05:40:12;;;;;;;2.03;1.70;;;4.80;99.90;5.80;97049.00;;;;5069743;28;20719;-70
2022/11/07 05:43:01;;;;;;;4.13;2.47;;;4.80;99.90;6.00;97050.00;;;;5086728;28;20199;-70
2022/11/07 05:45:51;;;;;;;3.23;2.50;;;4.90;99.90;6.10;97044.00;;;;5082064;28;20228;-70
2022/11/07 05:48:40;;;;;;;7.23;2.53;;;4.90;99.90;6.00;97054.00;;;;5083757;28;20216;-69
2022/11/07 05:51:30;;;;;;;2.57;2.37;;;5.00;99.90;6.20;97051.00;;;;5073180;28;20242;-70
2022/11/07 05:54:19;;;;;;;2.00;1.80;;;5.00;99.90;6.10;97053.00;;;;5079704;28;20276;-70
2022/11/07 05:57:07;;;;;;;7.60;1.73;;;5.10;99.90;6.20;97066.00;;;;5080887;28;20273;-69
2022/11/07 05:59:56;;;;;;;1.73;1.63;;;5.10;99.90;6.00;97058.00;;;;5080405;28;20273;-70
2022/11/07 06:02:45;;;;;;;1.97;1.80;;;5.10;99.90;6.00;97069.00;;;;5078601;28;20228;-69
2022/11/07 06:05:34;;;;;;;3.80;2.10;;;5.10;99.90;6.20;97077.00;;;;5083199;28;20209;-69
2022/11/07 06:08:24;;;;;;;3.83;2.60;;;5.10;99.90;5.90;97085.00;;;;5084949;28;20277;-70
2022/11/07 06:11:13;;;;;;;9.00;2.63;;;5.10;99.90;5.80;97081.00;;;;5080370;28;20627;-70
2022/11/07 06:14:02;;;;;;;5.70;3.27;;;5.00;99.90;6.10;97093.00;;;;5086197;28;20298;-70
2022/11/07 06:16:50;;;;;;;4.60;2.73;;;5.00;99.90;6.30;97094.00;;;;5088397;28;20227;-70
2022/11/07 06:19:39;;;;;;;4.40;2.73;;;5.10;99.90;6.40;97101.00;;;;5078868;28;20234;-70
2022/11/07 06:22:29;;;;;;;1.90;1.80;;;5.20;99.90;6.20;97099.00;;;;5083283;28;20211;-70
2022/11/07 06:25:19;;;;;;;3.77;3.37;;;5.20;99.90;6.10;97090.00;;;;5084922;28;20598;-70
2022/11/07 06:28:10;;;;;;;4.50;3.10;;;5.20;99.90;5.90;97102.00;;;;5085195;28;20264;-70
2022/11/07 06:31:00;;;;;;;5.00;2.67;;;5.10;99.90;5.90;97107.00;;;;5084391;28;20206;-70
2022/11/07 06:33:50;;;;;;;4.17;2.60;;;5.10;99.90;6.10;97107.00;;;;5087663;28;20218;-70
2022/11/07 06:36:42;;;;;;;3.13;2.83;;;5.10;99.90;6.00;97116.00;;;;5084965;28;20191;-70
2022/11/07 06:39:30;;;;;;;7.77;2.90;;;5.10;99.90;5.90;97115.00;;;;5085639;28;20219;-69
2022/11/07 06:42:20;;;;;;;4.30;2.93;;;5.10;99.90;6.10;97120.00;;;;5083960;28;20686;-70
2022/11/07 06:45:11;;;;;;;12.53;3.33;;;5.10;99.90;6.10;97124.00;;;;5080260;28;20199;-70
2022/11/07 06:47:59;;;;;;;4.10;2.67;;;5.10;99.90;6.00;97126.00;;;;5084572;28;21592;-69
2022/11/07 06:50:48;;;;;;;4.67;3.23;;;5.10;99.90;6.10;97135.00;;;;5079796;28;20199;-70
2022/11/07 06:53:38;;;;;;;3.60;2.87;;;5.20;99.90;6.20;97129.00;;;;5082334;28;20196;-69
2022/11/07 06:56:26;;;;;;;3.60;2.97;;;5.20;99.90;6.30;97133.00;;;;5086198;28;20680;-70
2022/11/07 06:59:16;;;;;;;4.60;3.03;;;5.20;99.90;6.30;97129.00;;;;5086609;28;20264;-70
2022/11/07 07:02:05;;;;;;;2.83;2.63;;;5.30;99.90;6.10;97122.00;;;;5084942;28;20282;-69
2022/11/07 07:04:54;;;;;;;7.50;2.60;;;5.30;99.90;6.40;97126.00;;;;5082143;28;20195;-70
2022/11/07 07:07:42;;;;;;;6.77;3.93;;;5.30;99.90;6.30;97123.00;;;;5086192;28;20698;-70
2022/11/07 07:10:31;;;;;;;4.00;2.67;;;5.30;99.90;5.80;97128.00;;;;5086460;28;20251;-70
2022/11/07 07:13:20;;;;;;;2.50;2.30;;;5.20;99.90;5.60;97123.00;;;;5086316;28;20273;-70
2022/11/07 07:16:10;;;;;;;3.57;2.60;;;5.20;99.90;5.60;97135.00;;;;5083085;28;20208;-69
2022/11/07 07:18:59;;;;;;;3.13;2.63;;;5.10;99.90;6.10;97140.00;;;;5084888;28;20219;-69
2022/11/07 07:21:48;;;;;;;5.70;3.33;;;5.10;99.90;6.50;97137.00;;;;5084870;28;20310;-69
2022/11/07 07:24:36;;;;;;;2.90;2.23;;;5.20;99.90;6.20;97136.00;;;;5085028;28;20192;-69
2022/11/07 07:27:25;;;;;;;4.63;2.83;;;5.30;99.90;6.20;97128.00;;;;5085412;28;20270;-69
2022/11/07 07:30:14;;;;;;;4.47;2.40;;;5.30;99.90;6.30;97133.00;;;;5081687;28;20235;-69
2022/11/07 07:33:05;;;;;;;4.10;2.70;;;5.30;99.90;6.30;97133.00;;;;5086976;28;20192;-69
2022/11/07 07:35:53;;;;;;;4.77;3.17;;;5.40;99.90;6.40;97144.00;;;;5080171;28;20230;-69
2022/11/07 07:38:42;;;;;;;8.10;3.07;;;5.50;99.90;6.40;97143.00;;;;5084165;28;20270;-69
2022/11/07 07:41:31;;;;;;;5.43;2.60;;;5.60;99.90;6.60;97141.00;;;;5071015;28;20219;-69
2022/11/07 07:44:22;;;;;;;5.93;3.10;;;5.60;99.90;6.90;97142.00;;;;5084215;28;20211;-70
2022/11/07 07:47:11;;;;;;;9.00;3.83;;;5.70;99.90;7.20;97148.00;;;;5083972;28;20598;-70
2022/11/07 07:50:01;;;;;;;3.77;3.20;;;5.80;99.90;7.30;97154.00;;;;5084149;28;20211;-69
2022/11/07 07:52:56;;;;;;;4.50;2.83;;;5.90;99.90;7.30;97156.00;;;;5078935;28;20218;-69
2022/11/07 07:55:45;;;;;;;3.13;2.80;;;6.10;99.90;6.90;97153.00;;;;5087910;28;20268;-68
2022/11/07 07:58:34;;;;;;;3.57;2.70;;;6.10;99.90;6.60;97144.00;;;;5075646;28;20780;-69
2022/11/07 08:01:23;;;;;;;4.13;2.90;;;6.00;99.90;6.90;97149.00;;;;5081807;28;20227;-69
2022/11/07 08:04:12;;;;;;;4.23;3.60;;;6.00;99.90;7.30;97157.00;;;;5087539;28;20196;-69
2022/11/07 08:07:02;;;;;;;4.80;3.03;;;6.00;99.90;7.10;97152.00;;;;5072895;28;20203;-70
2022/11/07 08:09:50;;;;;;;4.73;3.23;;;6.00;99.90;7.00;97159.00;;;;5071767;28;20839;-70
2022/11/07 08:12:44;;;;;;;2.63;2.27;;;6.10;99.90;7.20;97164.00;;;;5071905;28;20235;-70
2022/11/07 08:15:33;;;;;;;3.90;2.83;;;6.20;99.90;7.40;97170.00;;;;5070604;28;20211;-70
2022/11/07 08:18:22;;;;;;;7.17;3.00;;;6.30;99.90;7.40;97168.00;;;;5071111;28;20219;-69
2022/11/07 08:21:11;;;;;;;3.23;2.83;;;6.40;99.90;7.60;97169.00;;;;5080039;28;20223;-69
2022/11/07 08:24:02;;;;;;;3.40;2.63;;;6.40;99.90;7.50;97181.00;;;;5080039;28;20200;-69
2022/11/07 08:26:51;;;;;;;3.40;2.73;;;6.50;99.90;7.70;97185.00;;;;5080549;28;20307;-69
2022/11/07 08:29:41;;;;;;;3.57;2.43;;;6.60;99.90;8.00;97187.00;;;;5086066;28;20263;-69
2022/11/07 08:32:30;;;;;;;3.37;2.63;;;6.70;99.90;7.90;97183.00;;;;5084407;28;20195;-70
2022/11/07 08:35:19;;;;;;;4.07;3.23;;;6.80;99.90;8.10;97193.00;;;;5090386;28;20199;-69
2022/11/07 08:38:08;;;;;;;4.40;2.90;;;7.00;99.90;8.60;97183.00;;;;5090308;28;20987;-69
2022/11/07 08:40:59;;;;;;;2.77;2.33;;;7.10;99.90;9.00;97189.00;;;;5090872;28;20632;-69
2022/11/07 08:43:48;;;;;;;3.23;2.90;;;7.30;99.90;9.30;97183.00;;;;5084135;28;20288;-69
2022/11/07 08:46:36;;;;;;;4.23;2.73;;;7.50;99.90;9.60;97178.00;;;;5071506;28;20619;-69
2022/11/07 08:49:25;;;;;;;2.93;2.63;;;7.80;99.90;9.70;97187.00;;;;5080692;28;20273;-69
2022/11/07 08:52:14;;;;;;;2.63;2.20;;;8.00;99.90;10.00;97182.00;;;;5086110;28;20202;-70
2022/11/07 08:55:03;;;;;;;5.43;2.70;;;8.20;99.90;10.10;97183.00;;;;5071154;28;20210;-70
2022/11/07 08:57:59;;;;;;;6.27;3.03;;;8.50;99.90;10.40;97179.00;;;;5088134;28;20231;-69
2022/11/07 09:00:47;;;;;;;6.93;2.60;;;8.60;99.90;10.30;97183.00;;;;5082905;28;20214;-70
2022/11/07 09:03:37;;;;;;;4.00;2.50;;;8.80;99.90;9.90;97178.00;;;;5074105;28;20192;-70
2022/11/07 09:06:35;;;;;;;7.23;2.80;;;8.90;99.90;10.20;97191.00;;;;5083194;28;20187;-69
2022/11/07 09:09:24;;;;;;;4.13;3.00;;;9.00;99.90;9.90;97186.00;;;;5079109;28;20917;-70
2022/11/07 09:12:12;;;;;;;3.00;2.10;;;8.90;99.90;10.20;97185.00;;;;5073172;28;20278;-70
2022/11/07 09:15:03;;;;;;;2.83;2.40;;;9.00;99.90;10.40;97179.00;;;;5086132;28;20313;-71
2022/11/07 09:17:51;;;;;;;3.00;2.70;;;9.10;99.90;10.60;97185.00;;;;5078115;28;20196;-70
2022/11/07 09:20:40;;;;;;;3.40;2.57;;;9.20;99.90;11.20;97199.00;;;;5090738;28;20636;-70
2022/11/07 09:23:29;;;;;;;5.43;2.27;;;9.40;99.90;11.20;97206.00;;;;5090225;28;20313;-70
2022/11/07 09:26:18;;;;;;;2.13;1.93;;;9.60;99.90;11.20;97200.00;;;;5087510;28;20721;-70
2022/11/07 09:29:07;;;;;;;4.63;2.60;;;9.80;99.90;10.90;97195.00;;;;5071089;28;20228;-70
2022/11/07 09:31:57;;;;;;;4.40;2.60;;;9.90;99.90;11.10;97192.00;;;;5086748;28;20204;-69
2022/11/07 09:34:45;;;;;;;2.67;1.97;;;10.00;99.90;11.40;97194.00;;;;5077943;28;20249;-69
2022/11/07 09:37:38;;;;;;;2.40;2.17;;;10.00;99.90;11.80;97197.00;;;;5077303;28;20203;-69
2022/11/07 09:40:39;;;;;;;3.60;2.80;;;10.20;99.90;11.70;97187.00;;;;5081796;28;20256;-69
2022/11/07 09:43:54;;;;;;;5.17;2.37;;;10.40;99.90;11.90;97192.00;;;;5076676;28;20210;-69
2022/11/07 09:46:59;;;;;;;5.17;2.47;;;10.50;99.90;12.20;97182.00;;;;5078432;28;20233;-70
2022/11/07 09:49:52;;;;;;;3.07;2.10;;;10.70;99.90;13.10;97193.00;;;;5079868;28;20602;-69
2022/11/07 09:52:47;;;;;;;3.23;2.63;;;11.00;99.90;12.90;97191.00;;;;5075682;28;20303;-69
2022/11/07 09:55:38;;;;;;;1.83;1.63;;;11.30;99.90;12.70;97175.00;;;;5084024;28;20260;-69
2022/11/07 09:58:33;;;;;;;2.17;1.87;;;11.30;99.90;13.10;97180.00;;;;5087988;28;20372;-69
2022/11/07 10:01:22;;;;;;;2.73;2.03;;;11.50;99.90;13.70;97172.00;;;;5075889;28;20316;-69
2022/11/07 10:04:18;;;;;;;4.93;2.20;;;11.70;99.90;14.00;97162.00;;;;5086217;28;20199;-70
2022/11/07 10:07:28;;;;;;;4.40;1.93;;;12.00;99.90;14.60;97166.00;;;;5078342;28;20199;-69
2022/11/07 10:10:25;;;;;;;2.83;2.10;;;12.30;99.90;15.00;97161.00;;;;5080594;28;20214;-69
2022/11/07 10:13:37;;;;;;;2.27;1.67;;;12.60;99.90;15.70;97165.00;;;;5088404;28;20239;-69
2022/11/07 10:16:39;;;;;;;1.77;1.67;;;13.50;99.90;16.30;97159.00;;;;5077437;28;20207;-68
2022/11/07 10:20:07;;;;;;;2.67;1.40;;;14.80;99.90;17.50;97164.00;;;;5082288;28;20308;-68
2022/11/07 10:23:19;;;;;;;3.60;1.97;;;16.10;99.90;18.00;97165.00;;;;5078179;28;20733;-69
2022/11/07 10:26:10;;;;;;;1.60;1.40;;;17.20;99.90;18.50;97172.00;;;;5082117;28;20195;-69
2022/11/07 10:29:03;;;;;;;1.83;1.73;;;18.00;99.90;18.90;97161.00;;;;5069594;28;20236;-69
2022/11/07 10:32:00;;;;;;;3.03;1.17;;;18.50;99.90;19.30;97155.00;;;;5083414;28;20206;-69
2022/11/07 10:34:59;;;;;;;2.73;1.83;;;19.00;99.30;19.20;97154.00;;;;5073667;28;20280;-69
2022/11/07 10:37:55;;;;;;;1.67;1.13;;;19.30;95.60;18.80;97158.00;;;;5085457;28;20187;-67
2022/11/07 10:40:46;;;;;;;2.10;1.30;;;19.30;93.00;19.60;97154.00;;;;5074018;28;20222;-69
2022/11/07 10:43:38;;;;;;;1.30;1.10;;;19.10;94.50;19.80;97153.00;;;;5076505;28;20230;-69
2022/11/07 10:46:36;;;;;;;1.53;1.37;;;19.30;93.60;20.60;97149.00;;;;5078746;28;20207;-69
2022/11/07 10:49:27;;;;;;;1.57;1.47;;;19.60;94.20;20.00;97143.00;;;;5083044;28;20215;-69
2022/11/07 10:52:20;;;;;;;2.93;1.43;;;19.90;91.90;20.40;97138.00;;;;5078737;28;20227;-69
2022/11/07 10:55:15;;;;;;;2.27;0.97;;;19.90;91.10;21.00;97147.00;;;;5074214;28;20200;-69
2022/11/07 10:58:07;;;;;;;1.70;1.60;;;20.00;92.30;21.50;97147.00;;;;5085368;28;20288;-69
2022/11/07 11:01:05;;;;;;;1.50;1.40;;;20.20;92.20;21.50;97145.00;;;;5078139;28;20291;-69
2022/11/07 11:03:54;;;;;;;1.30;1.20;;;20.40;91.40;21.80;97138.00;;;;5079542;28;20254;-69
2022/11/07 11:06:43;;;;;;;1.40;1.17;;;20.60;91.20;21.80;97132.00;;;;5076371;28;20223;-69
2022/11/07 11:09:35;;;;;;;2.40;1.00;;;20.70;89.80;21.50;97130.00;;;;5079133;28;20264;-69
2022/11/07 11:12:30;;;;;;;1.50;1.30;;;20.80;90.00;21.00;97122.00;;;;5083286;28;20266;-69
2022/11/07 11:15:24;;;;;;;3.17;1.43;;;20.70;88.30;21.60;97131.00;;;;5073563;28;20215;-69
2022/11/07 11:18:17;;;;;;;1.23;1.13;;;20.60;89.50;22.20;97132.00;;;;5070095;28;20261;-69
2022/11/07 11:21:06;;;;;;;1.63;0.90;;;20.60;90.00;22.30;97131.00;;;;5081233;28;20199;-69
2022/11/07 11:23:55;;;;;;;1.93;1.20;;;20.70;87.70;21.70;97119.00;;;;5079937;28;20270;-69
2022/11/07 11:26:49;;;;;;;0.80;0.80;;;20.70;84.90;21.40;97113.00;;;;5079997;28;20231;-69
2022/11/07 11:29:45;;;;;;;1.10;1.00;;;20.60;83.80;22.30;97120.00;;;;5069642;28;20218;-68
2022/11/07 11:32:41;;;;;;;1.20;0.70;;;20.60;85.00;22.70;97115.00;;;;5080499;28;20276;-68
2022/11/07 11:35:37;;;;;;;1.00;0.60;;;20.80;83.30;22.90;97116.00;;;;5081610;28;20214;-69
2022/11/07 11:38:31;;;;;;;0.63;0.63;;;21.00;80.70;23.20;97107.00;;;;5077452;28;20223;-69
2022/11/07 11:41:25;;;;;;;0.87;0.60;;;21.20;80.10;23.00;97110.00;;;;5083344;28;20703;-69
2022/11/07 11:44:20;;;;;;;0.93;0.70;;;21.40;78.50;24.10;97110.00;;;;5079795;28;20211;-69
2022/11/07 11:47:16;;;;;;;0.50;0.50;;;21.60;80.40;24.10;97120.00;;;;5077600;28;20206;-70
2022/11/07 11:50:14;;;;;;;1.27;0.87;;;22.10;77.80;23.90;97112.00;;;;5079257;28;20259;-69
2022/11/07 11:53:03;;;;;;;1.50;0.70;;;22.30;74.70;23.90;97107.00;;;;5077119;28;20632;-69
2022/11/07 11:56:08;;;;;;;0.53;0.53;;;22.30;73.30;24.20;97116.00;;;;5082648;28;20239;-69
2022/11/07 11:59:32;;;;;;;0.83;0.70;;;22.40;72.60;24.50;97115.00;;;;5079910;28;20258;-69
2022/11/07 12:03:03;;;;;;;1.90;0.77;;;22.70;72.00;24.90;97115.00;;;;5076445;28;20674;-69
2022/11/07 12:06:12;;;;;;;0.40;0.40;;;22.90;71.60;24.50;97108.00;;;;5082266;28;20294;-70
2022/11/07 12:09:14;;;;;;;1.63;0.70;;;22.90;68.40;25.00;97109.00;;;;5073990;28;20229;-69
2022/11/07 12:12:18;;;;;;;0.83;0.50;;;23.10;69.50;24.60;97098.00;;;;5077319;28;20242;-69
2022/11/07 12:15:32;;;;;;;0.73;0.50;;;23.00;68.20;22.90;97096.00;;;;5081692;28;20252;-70
2022/11/07 12:18:31;;;;;;;0.80;0.50;;;22.90;68.10;22.80;97089.00;;;;5079960;28;20716;-69
2022/11/07 12:21:31;;;;;;;0.50;0.50;;;22.50;67.80;24.60;97097.00;;;;5085084;28;20229;-69
2022/11/07 12:24:34;;;;;;;0.50;0.50;;;22.60;67.80;25.20;97107.00;;;;5085510;28;20244;-69
2022/11/07 12:27:33;;;;;;;0.57;0.50;;;22.90;66.80;24.20;97094.00;;;;5092317;28;20243;-69
2022/11/07 12:30:35;;;;;;;0.73;0.40;;;23.10;64.40;25.00;97090.00;;;;5079888;28;20196;-69
2022/11/07 12:33:33;;;;;;;1.00;0.60;;;23.30;64.80;25.30;97090.00;;;;5082020;28;20232;-69
2022/11/07 12:36:40;;;;;;;0.47;0.33;;;23.70;62.70;26.00;97085.00;;;;5085497;28;20199;-69
2022/11/07 12:39:44;;;;;;;0.55;0.50;;;24.10;60.90;27.20;97089.00;;;;5088577;28;20233;-69
2022/11/07 12:42:46;;;;;;;0.65;0.50;;;24.60;61.50;27.00;97083.00;;;;5074436;28;20211;-68
2022/11/07 12:45:48;;;;;;;1.38;0.80;;;25.00;59.50;24.90;97078.00;;;;5086988;28;20201;-69
2022/11/07 12:49:04;;;;;;;0.30;0.30;;;25.00;58.10;26.90;97085.00;;;;5084190;28;20220;-68
2022/11/07 12:52:00;;;;;;;0.82;0.50;;;25.10;58.30;28.10;97087.00;;;;5083821;28;20268;-68
2022/11/07 12:54:55;;;;;;;0.80;0.50;;;25.40;58.90;27.90;97080.00;;;;5086643;28;20296;-68
2022/11/07 12:57:45;;;;;;;0.73;0.50;;;26.00;58.60;28.50;97094.00;;;;5078652;28;20193;-68
2022/11/07 13:00:36;;;;;;;1.00;0.35;;;26.30;55.90;26.00;97091.00;;;;5076708;28;20198;-67
2022/11/07 13:03:56;;;;;;;0.55;0.55;;;26.30;56.20;24.40;97089.00;;;;5079679;28;20230;-68
2022/11/07 13:06:50;;;;;;;0.40;0.40;;;25.70;54.50;23.70;97084.00;;;;5082378;28;20204;-68
2022/11/07 13:09:51;;;;;;;1.13;0.60;;;24.70;55.50;22.00;97075.00;;;;5083191;28;20218;-68